UAR weather

Bouarfa Airport
Bouarfa, Figuig Province, Morocco

Public forecast

Using degrees Celsius for public forecast. Weather courtesy of forecast.io.

Closest aviation weather report (METAR) to Bouarfa Airport

Closest report is B├ęchar Boudghene Ben Ali Lotfi Airport, 54.2 nm (100.3 km) SSW. Retrieved 2020/08/05 04:00 UTC (25 minutes ago):

DAOR 050400Z 10010KT CAVOK 32/00 Q1012

Aviation forecast (TAF) for Bouarfa Airport

Forecast is more than 12 hours old.

Retrieved 2010/10/04 22:00 UTC (10 years ago):

TAF GMFB 042200Z 0500/0606 26008KT 9999 SCT010 BKN033 BKN100 PROB30 TEMPO 0500/0505 RA BECMG 0510/0514 32010KT BKN033 BKN100